sensor_id;sensor_type;location;lat;lon;timestamp;temperature;humidity
17437;DHT22;73152;52.198;5.422;2023-12-07T00:00:07;21.50;42.60
17437;DHT22;73152;52.198;5.422;2023-12-07T00:02:36;21.50;42.60
17437;DHT22;73152;52.198;5.422;2023-12-07T00:05:05;21.40;42.70
17437;DHT22;73152;52.198;5.422;2023-12-07T00:07:35;21.40;42.80
17437;DHT22;73152;52.198;5.422;2023-12-07T00:10:05;21.40;42.80
17437;DHT22;73152;52.198;5.422;2023-12-07T00:12:37;21.40;42.70
17437;DHT22;73152;52.198;5.422;2023-12-07T00:15:07;21.50;42.70
17437;DHT22;73152;52.198;5.422;2023-12-07T00:17:36;21.50;42.60
17437;DHT22;73152;52.198;5.422;2023-12-07T00:20:06;21.50;42.60
17437;DHT22;73152;52.198;5.422;2023-12-07T00:22:36;21.50;42.60
17437;DHT22;73152;52.198;5.422;2023-12-07T00:25:06;21.50;42.50
17437;DHT22;73152;52.198;5.422;2023-12-07T00:27:38;21.50;42.60
17437;DHT22;73152;52.198;5.422;2023-12-07T00:30:08;21.50;42.60
17437;DHT22;73152;52.198;5.422;2023-12-07T00:32:37;21.40;42.60
17437;DHT22;73152;52.198;5.422;2023-12-07T00:35:09;21.40;42.60
17437;DHT22;73152;52.198;5.422;2023-12-07T00:37:38;21.40;42.70
17437;DHT22;73152;52.198;5.422;2023-12-07T00:40:07;21.50;42.50
17437;DHT22;73152;52.198;5.422;2023-12-07T00:42:40;21.50;42.50
17437;DHT22;73152;52.198;5.422;2023-12-07T00:45:11;21.50;42.50
17437;DHT22;73152;52.198;5.422;2023-12-07T00:47:40;21.50;42.50
17437;DHT22;73152;52.198;5.422;2023-12-07T00:50:12;21.50;42.50
17437;DHT22;73152;52.198;5.422;2023-12-07T00:52:42;21.40;42.50
17437;DHT22;73152;52.198;5.422;2023-12-07T00:55:11;21.40;42.50
17437;DHT22;73152;52.198;5.422;2023-12-07T00:57:42;21.40;42.60
17437;DHT22;73152;52.198;5.422;2023-12-07T01:00:11;21.40;42.60
17437;DHT22;73152;52.198;5.422;2023-12-07T01:02:41;21.40;42.50
17437;DHT22;73152;52.198;5.422;2023-12-07T01:05:07;21.40;42.50
17437;DHT22;73152;52.198;5.422;2023-12-07T01:07:37;21.40;42.40
17437;DHT22;73152;52.198;5.422;2023-12-07T01:10:07;21.50;42.40
17437;DHT22;73152;52.198;5.422;2023-12-07T01:12:36;21.50;42.40
17437;DHT22;73152;52.198;5.422;2023-12-07T01:15:08;21.50;42.30
17437;DHT22;73152;52.198;5.422;2023-12-07T01:17:37;21.50;42.30
17437;DHT22;73152;52.198;5.422;2023-12-07T01:20:07;21.50;42.10
17437;DHT22;73152;52.198;5.422;2023-12-07T01:22:39;21.50;42.20
17437;DHT22;73152;52.198;5.422;2023-12-07T01:25:08;21.50;42.20
17437;DHT22;73152;52.198;5.422;2023-12-07T01:27:37;21.50;42.20
17437;DHT22;73152;52.198;5.422;2023-12-07T01:30:10;21.50;42.20
17437;DHT22;73152;52.198;5.422;2023-12-07T01:32:39;21.50;42.20
17437;DHT22;73152;52.198;5.422;2023-12-07T01:35:08;21.50;42.30
17437;DHT22;73152;52.198;5.422;2023-12-07T01:37:37;21.40;42.40
17437;DHT22;73152;52.198;5.422;2023-12-07T01:40:07;21.40;42.40
17437;DHT22;73152;52.198;5.422;2023-12-07T01:42:37;21.40;42.50
17437;DHT22;73152;52.198;5.422;2023-12-07T01:45:09;21.40;42.40
17437;DHT22;73152;52.198;5.422;2023-12-07T01:47:38;21.40;42.40
17437;DHT22;73152;52.198;5.422;2023-12-07T01:50:08;21.40;42.40
17437;DHT22;73152;52.198;5.422;2023-12-07T01:52:44;21.40;42.40
17437;DHT22;73152;52.198;5.422;2023-12-07T01:55:16;21.40;42.40
17437;DHT22;73152;52.198;5.422;2023-12-07T01:57:46;21.40;42.30
17437;DHT22;73152;52.198;5.422;2023-12-07T02:00:18;21.40;42.30
17437;DHT22;73152;52.198;5.422;2023-12-07T02:02:48;21.40;42.30
17437;DHT22;73152;52.198;5.422;2023-12-07T02:05:17;21.40;42.30
17437;DHT22;73152;52.198;5.422;2023-12-07T02:07:47;21.40;42.20
17437;DHT22;73152;52.198;5.422;2023-12-07T02:10:16;21.40;42.20
17437;DHT22;73152;52.198;5.422;2023-12-07T02:12:47;21.40;42.20
17437;DHT22;73152;52.198;5.422;2023-12-07T02:15:19;21.40;42.20
17437;DHT22;73152;52.198;5.422;2023-12-07T02:17:54;21.40;42.20
17437;DHT22;73152;52.198;5.422;2023-12-07T02:20:37;21.40;42.20
17437;DHT22;73152;52.198;5.422;2023-12-07T02:23:14;21.40;42.20
17437;DHT22;73152;52.198;5.422;2023-12-07T02:25:51;21.40;42.10
17437;DHT22;73152;52.198;5.422;2023-12-07T02:28:23;21.40;42.10
17437;DHT22;73152;52.198;5.422;2023-12-07T02:30:51;21.40;42.10
17437;DHT22;73152;52.198;5.422;2023-12-07T02:33:20;21.40;42.10
17437;DHT22;73152;52.198;5.422;2023-12-07T02:35:49;21.40;42.10
17437;DHT22;73152;52.198;5.422;2023-12-07T02:38:18;21.40;42.10
17437;DHT22;73152;52.198;5.422;2023-12-07T02:40:51;21.40;42.00
17437;DHT22;73152;52.198;5.422;2023-12-07T02:43:25;21.50;42.00
17437;DHT22;73152;52.198;5.422;2023-12-07T02:45:55;21.50;42.00
17437;DHT22;73152;52.198;5.422;2023-12-07T02:48:24;21.40;41.90
17437;DHT22;73152;52.198;5.422;2023-12-07T02:50:52;21.50;41.90
17437;DHT22;73152;52.198;5.422;2023-12-07T02:53:21;21.50;41.90
17437;DHT22;73152;52.198;5.422;2023-12-07T02:55:50;21.50;41.80
17437;DHT22;73152;52.198;5.422;2023-12-07T02:58:19;21.50;41.90
17437;DHT22;73152;52.198;5.422;2023-12-07T03:00:50;21.40;42.00
17437;DHT22;73152;52.198;5.422;2023-12-07T03:03:19;21.50;41.90
17437;DHT22;73152;52.198;5.422;2023-12-07T03:05:48;21.40;41.90
17437;DHT22;73152;52.198;5.422;2023-12-07T03:08:17;21.40;42.00
17437;DHT22;73152;52.198;5.422;2023-12-07T03:10:46;21.50;41.90
17437;DHT22;73152;52.198;5.422;2023-12-07T03:13:14;21.40;41.90
17437;DHT22;73152;52.198;5.422;2023-12-07T03:15:43;21.40;42.00
17437;DHT22;73152;52.198;5.422;2023-12-07T03:18:15;21.30;42.00
17437;DHT22;73152;52.198;5.422;2023-12-07T03:20:44;21.40;42.10
17437;DHT22;73152;52.198;5.422;2023-12-07T03:23:12;21.30;42.10
17437;DHT22;73152;52.198;5.422;2023-12-07T03:25:42;21.30;42.10
17437;DHT22;73152;52.198;5.422;2023-12-07T03:28:11;21.40;42.00
17437;DHT22;73152;52.198;5.422;2023-12-07T03:30:40;21.40;42.00
17437;DHT22;73152;52.198;5.422;2023-12-07T03:33:09;21.40;41.90
17437;DHT22;73152;52.198;5.422;2023-12-07T03:35:41;21.40;41.90
17437;DHT22;73152;52.198;5.422;2023-12-07T03:38:10;21.40;41.90
17437;DHT22;73152;52.198;5.422;2023-12-07T03:40:39;21.40;41.80
17437;DHT22;73152;52.198;5.422;2023-12-07T03:43:07;21.40;41.90
17437;DHT22;73152;52.198;5.422;2023-12-07T03:45:36;21.50;41.90
17437;DHT22;73152;52.198;5.422;2023-12-07T03:48:05;21.40;41.80
17437;DHT22;73152;52.198;5.422;2023-12-07T03:50:34;21.40;41.80
17437;DHT22;73152;52.198;5.422;2023-12-07T03:53:05;21.40;41.90
17437;DHT22;73152;52.198;5.422;2023-12-07T03:55:35;21.40;41.90
17437;DHT22;73152;52.198;5.422;2023-12-07T03:58:04;21.40;41.90
17437;DHT22;73152;52.198;5.422;2023-12-07T04:00:33;21.40;41.80
17437;DHT22;73152;52.198;5.422;2023-12-07T04:03:02;21.40;41.70
17437;DHT22;73152;52.198;5.422;2023-12-07T04:05:31;21.50;41.70
17437;DHT22;73152;52.198;5.422;2023-12-07T04:08:00;21.40;41.70
17437;DHT22;73152;52.198;5.422;2023-12-07T04:10:33;21.40;41.80
17437;DHT22;73152;52.198;5.422;2023-12-07T04:13:02;21.40;41.80
17437;DHT22;73152;52.198;5.422;2023-12-07T04:15:31;21.40;41.80
17437;DHT22;73152;52.198;5.422;2023-12-07T04:18:00;21.40;41.80
17437;DHT22;73152;52.198;5.422;2023-12-07T04:20:29;21.40;41.70
17437;DHT22;73152;52.198;5.422;2023-12-07T04:22:58;21.40;41.80
17437;DHT22;73152;52.198;5.422;2023-12-07T04:25:26;21.40;41.70
17437;DHT22;73152;52.198;5.422;2023-12-07T04:27:59;21.40;41.60
17437;DHT22;73152;52.198;5.422;2023-12-07T04:30:28;21.40;41.60
17437;DHT22;73152;52.198;5.422;2023-12-07T04:32:56;21.40;41.60
17437;DHT22;73152;52.198;5.422;2023-12-07T04:35:25;21.50;41.50
17437;DHT22;73152;52.198;5.422;2023-12-07T04:37:54;21.50;41.50
17437;DHT22;73152;52.198;5.422;2023-12-07T04:40:24;21.40;41.60
17437;DHT22;73152;52.198;5.422;2023-12-07T04:42:53;21.50;41.60
17437;DHT22;73152;52.198;5.422;2023-12-07T04:45:24;21.40;41.60
17437;DHT22;73152;52.198;5.422;2023-12-07T04:47:53;21.40;41.60
17437;DHT22;73152;52.198;5.422;2023-12-07T04:50:23;21.40;41.70
17437;DHT22;73152;52.198;5.422;2023-12-07T04:52:52;21.30;41.70
17437;DHT22;73152;52.198;5.422;2023-12-07T04:55:21;21.40;41.80
17437;DHT22;73152;52.198;5.422;2023-12-07T04:57:50;21.30;41.80
17437;DHT22;73152;52.198;5.422;2023-12-07T05:00:18;21.30;41.80
17437;DHT22;73152;52.198;5.422;2023-12-07T05:02:51;21.40;41.70
17437;DHT22;73152;52.198;5.422;2023-12-07T05:05:20;21.40;41.70
17437;DHT22;73152;52.198;5.422;2023-12-07T05:07:50;21.40;41.70
17437;DHT22;73152;52.198;5.422;2023-12-07T05:10:19;21.40;41.60
17437;DHT22;73152;52.198;5.422;2023-12-07T05:12:48;21.40;41.60
17437;DHT22;73152;52.198;5.422;2023-12-07T05:15:17;21.40;41.70
17437;DHT22;73152;52.198;5.422;2023-12-07T05:17:45;21.40;41.70
17437;DHT22;73152;52.198;5.422;2023-12-07T05:20:17;21.40;41.70
17437;DHT22;73152;52.198;5.422;2023-12-07T05:22:48;21.30;41.70
17437;DHT22;73152;52.198;5.422;2023-12-07T05:25:17;21.30;41.70
17437;DHT22;73152;52.198;5.422;2023-12-07T05:27:46;21.30;41.80
17437;DHT22;73152;52.198;5.422;2023-12-07T05:30:15;21.40;41.60
17437;DHT22;73152;52.198;5.422;2023-12-07T05:32:44;21.40;41.60
17437;DHT22;73152;52.198;5.422;2023-12-07T05:35:13;21.40;41.50
17437;DHT22;73152;52.198;5.422;2023-12-07T05:37:44;21.40;41.60
17437;DHT22;73152;52.198;5.422;2023-12-07T05:40:13;21.40;41.50
17437;DHT22;73152;52.198;5.422;2023-12-07T05:42:42;21.40;41.60
17437;DHT22;73152;52.198;5.422;2023-12-07T05:45:11;21.40;41.50
17437;DHT22;73152;52.198;5.422;2023-12-07T05:47:40;21.50;41.40
17437;DHT22;73152;52.198;5.422;2023-12-07T05:50:09;21.50;41.30
17437;DHT22;73152;52.198;5.422;2023-12-07T05:52:39;21.60;41.00
17437;DHT22;73152;52.198;5.422;2023-12-07T05:55:10;21.70;40.90
17437;DHT22;73152;52.198;5.422;2023-12-07T05:57:39;21.70;40.90
17437;DHT22;73152;52.198;5.422;2023-12-07T06:00:09;21.70;40.80
17437;DHT22;73152;52.198;5.422;2023-12-07T06:02:39;21.70;40.70
17437;DHT22;73152;52.198;5.422;2023-12-07T06:05:09;21.70;40.80
17437;DHT22;73152;52.198;5.422;2023-12-07T06:07:37;21.70;40.80
17437;DHT22;73152;52.198;5.422;2023-12-07T06:10:10;21.70;40.90
17437;DHT22;73152;52.198;5.422;2023-12-07T06:12:38;21.60;40.90
17437;DHT22;73152;52.198;5.422;2023-12-07T06:15:09;21.60;41.00
17437;DHT22;73152;52.198;5.422;2023-12-07T06:17:38;21.50;41.10
17437;DHT22;73152;52.198;5.422;2023-12-07T06:20:08;21.50;41.20
17437;DHT22;73152;52.198;5.422;2023-12-07T06:22:38;21.40;41.40
17437;DHT22;73152;52.198;5.422;2023-12-07T06:25:10;21.40;41.50
17437;DHT22;73152;52.198;5.422;2023-12-07T06:27:39;21.30;41.40
17437;DHT22;73152;52.198;5.422;2023-12-07T06:30:09;21.40;41.50
17437;DHT22;73152;52.198;5.422;2023-12-07T06:32:38;21.40;41.50
17437;DHT22;73152;52.198;5.422;2023-12-07T06:35:08;21.30;41.50
17437;DHT22;73152;52.198;5.422;2023-12-07T06:37:39;21.30;41.50
17437;DHT22;73152;52.198;5.422;2023-12-07T06:40:12;21.30;41.50
17437;DHT22;73152;52.198;5.422;2023-12-07T06:42:40;21.30;41.50
17437;DHT22;73152;52.198;5.422;2023-12-07T06:45:09;21.30;41.50
17437;DHT22;73152;52.198;5.422;2023-12-07T06:47:39;21.20;41.70
17437;DHT22;73152;52.198;5.422;2023-12-07T06:50:09;21.20;41.60
17437;DHT22;73152;52.198;5.422;2023-12-07T06:52:39;21.20;41.80
17437;DHT22;73152;52.198;5.422;2023-12-07T06:55:11;21.20;41.70
17437;DHT22;73152;52.198;5.422;2023-12-07T06:57:42;21.30;41.70
17437;DHT22;73152;52.198;5.422;2023-12-07T07:00:11;21.30;41.60
17437;DHT22;73152;52.198;5.422;2023-12-07T07:02:40;21.40;41.40
17437;DHT22;73152;52.198;5.422;2023-12-07T07:05:09;21.50;41.30
17437;DHT22;73152;52.198;5.422;2023-12-07T07:07:39;21.50;41.30
17437;DHT22;73152;52.198;5.422;2023-12-07T07:10:11;21.70;40.90
17437;DHT22;73152;52.198;5.422;2023-12-07T07:12:40;21.70;40.70
17437;DHT22;73152;52.198;5.422;2023-12-07T07:15:09;21.70;40.70
17437;DHT22;73152;52.198;5.422;2023-12-07T07:17:38;21.70;40.70
17437;DHT22;73152;52.198;5.422;2023-12-07T07:20:08;21.70;40.80
17437;DHT22;73152;52.198;5.422;2023-12-07T07:22:37;21.60;40.90
17437;DHT22;73152;52.198;5.422;2023-12-07T07:25:07;21.60;41.10
17437;DHT22;73152;52.198;5.422;2023-12-07T07:27:40;21.50;41.10
17437;DHT22;73152;52.198;5.422;2023-12-07T07:30:09;21.50;41.30
17437;DHT22;73152;52.198;5.422;2023-12-07T07:32:39;21.40;41.40
17437;DHT22;73152;52.198;5.422;2023-12-07T07:35:08;21.40;41.50
17437;DHT22;73152;52.198;5.422;2023-12-07T07:37:41;21.40;41.70
17437;DHT22;73152;52.198;5.422;2023-12-07T07:40:11;21.40;41.80
17437;DHT22;73152;52.198;5.422;2023-12-07T07:42:43;21.40;41.70
17437;DHT22;73152;52.198;5.422;2023-12-07T07:45:11;21.40;41.80
17437;DHT22;73152;52.198;5.422;2023-12-07T07:47:40;21.40;41.80
17437;DHT22;73152;52.198;5.422;2023-12-07T07:50:09;21.40;41.90
17437;DHT22;73152;52.198;5.422;2023-12-07T07:52:38;21.40;41.90
17437;DHT22;73152;52.198;5.422;2023-12-07T07:55:09;21.40;41.90
17437;DHT22;73152;52.198;5.422;2023-12-07T07:57:38;21.40;42.00
17437;DHT22;73152;52.198;5.422;2023-12-07T08:00:12;21.40;42.00
17437;DHT22;73152;52.198;5.422;2023-12-07T08:02:43;21.30;42.00
17437;DHT22;73152;52.198;5.422;2023-12-07T08:05:12;21.50;42.20
17437;DHT22;73152;52.198;5.422;2023-12-07T08:07:40;21.50;42.00
17437;DHT22;73152;52.198;5.422;2023-12-07T08:10:09;21.70;41.60
17437;DHT22;73152;52.198;5.422;2023-12-07T08:12:39;21.70;41.50
17437;DHT22;73152;52.198;5.422;2023-12-07T08:15:11;21.70;42.40
17437;DHT22;73152;52.198;5.422;2023-12-07T08:17:41;21.80;42.80
17437;DHT22;73152;52.198;5.422;2023-12-07T08:20:11;21.80;42.40
17437;DHT22;73152;52.198;5.422;2023-12-07T08:22:40;21.80;42.00
17437;DHT22;73152;52.198;5.422;2023-12-07T08:25:10;21.80;41.70
17437;DHT22;73152;52.198;5.422;2023-12-07T08:27:40;21.90;41.40
17437;DHT22;73152;52.198;5.422;2023-12-07T08:30:13;22.00;41.20
17437;DHT22;73152;52.198;5.422;2023-12-07T08:32:42;22.20;40.70
17437;DHT22;73152;52.198;5.422;2023-12-07T08:35:11;22.40;40.20
17437;DHT22;73152;52.198;5.422;2023-12-07T08:37:40;22.70;39.70
17437;DHT22;73152;52.198;5.422;2023-12-07T08:40:09;22.90;39.10
17437;DHT22;73152;52.198;5.422;2023-12-07T08:42:41;23.20;38.60
17437;DHT22;73152;52.198;5.422;2023-12-07T08:45:14;23.20;38.30
17437;DHT22;73152;52.198;5.422;2023-12-07T08:47:43;23.30;38.20
17437;DHT22;73152;52.198;5.422;2023-12-07T08:50:12;23.30;38.10
17437;DHT22;73152;52.198;5.422;2023-12-07T08:52:41;23.30;38.00
17437;DHT22;73152;52.198;5.422;2023-12-07T08:55:10;23.40;37.80
17437;DHT22;73152;52.198;5.422;2023-12-07T08:57:40;23.50;37.60
17437;DHT22;73152;52.198;5.422;2023-12-07T09:00:10;23.50;37.60
17437;DHT22;73152;52.198;5.422;2023-12-07T09:02:42;23.60;37.50
17437;DHT22;73152;52.198;5.422;2023-12-07T09:05:11;23.50;37.50
17437;DHT22;73152;52.198;5.422;2023-12-07T09:07:40;23.40;37.60
17437;DHT22;73152;52.198;5.422;2023-12-07T09:10:10;23.40;37.70
17437;DHT22;73152;52.198;5.422;2023-12-07T09:12:39;23.20;37.80
17437;DHT22;73152;52.198;5.422;2023-12-07T09:15:08;23.10;38.10
17437;DHT22;73152;52.198;5.422;2023-12-07T09:17:38;22.90;38.40
17437;DHT22;73152;52.198;5.422;2023-12-07T09:20:10;22.80;38.70
17437;DHT22;73152;52.198;5.422;2023-12-07T09:22:42;22.60;39.10
17437;DHT22;73152;52.198;5.422;2023-12-07T09:25:11;22.50;39.30
17437;DHT22;73152;52.198;5.422;2023-12-07T09:27:40;22.30;39.70
17437;DHT22;73152;52.198;5.422;2023-12-07T09:30:10;22.20;39.80
17437;DHT22;73152;52.198;5.422;2023-12-07T09:32:40;22.20;39.90
17437;DHT22;73152;52.198;5.422;2023-12-07T09:35:12;22.10;40.00
17437;DHT22;73152;52.198;5.422;2023-12-07T09:37:44;22.10;40.10
17437;DHT22;73152;52.198;5.422;2023-12-07T09:40:17;22.10;40.10
17437;DHT22;73152;52.198;5.422;2023-12-07T09:42:48;22.10;40.20
17437;DHT22;73152;52.198;5.422;2023-12-07T09:45:19;22.00;41.10
17437;DHT22;73152;52.198;5.422;2023-12-07T09:47:49;22.00;41.10
17437;DHT22;73152;52.198;5.422;2023-12-07T09:50:22;22.00;41.00
17437;DHT22;73152;52.198;5.422;2023-12-07T09:52:55;22.00;40.80
17437;DHT22;73152;52.198;5.422;2023-12-07T09:55:25;22.00;40.80
17437;DHT22;73152;52.198;5.422;2023-12-07T09:57:54;22.00;40.60
17437;DHT22;73152;52.198;5.422;2023-12-07T10:00:23;22.10;40.40
17437;DHT22;73152;52.198;5.422;2023-12-07T10:02:52;22.30;40.00
17437;DHT22;73152;52.198;5.422;2023-12-07T10:05:24;22.60;39.40
17437;DHT22;73152;52.198;5.422;2023-12-07T10:07:52;22.90;38.80
17437;DHT22;73152;52.198;5.422;2023-12-07T10:10:21;23.20;38.20
17437;DHT22;73152;52.198;5.422;2023-12-07T10:12:52;23.40;37.60
17437;DHT22;73152;52.198;5.422;2023-12-07T10:15:24;23.60;37.40
17437;DHT22;73152;52.198;5.422;2023-12-07T10:17:55;23.80;37.00
17437;DHT22;73152;52.198;5.422;2023-12-07T10:20:29;23.90;36.90
17437;DHT22;73152;52.198;5.422;2023-12-07T10:23:02;23.90;36.90
17437;DHT22;73152;52.198;5.422;2023-12-07T10:25:32;23.80;36.90
17437;DHT22;73152;52.198;5.422;2023-12-07T10:28:03;23.70;37.10
17437;DHT22;73152;52.198;5.422;2023-12-07T10:30:33;23.60;37.20
17437;DHT22;73152;52.198;5.422;2023-12-07T10:33:03;23.40;37.40
17437;DHT22;73152;52.198;5.422;2023-12-07T10:35:38;23.30;37.50
17437;DHT22;73152;52.198;5.422;2023-12-07T10:38:07;23.20;37.70
17437;DHT22;73152;52.198;5.422;2023-12-07T10:40:37;23.10;38.00
17437;DHT22;73152;52.198;5.422;2023-12-07T10:43:07;23.00;38.00
17437;DHT22;73152;52.198;5.422;2023-12-07T10:45:37;22.90;38.30
17437;DHT22;73152;52.198;5.422;2023-12-07T10:48:07;22.80;38.50
17437;DHT22;73152;52.198;5.422;2023-12-07T10:50:41;22.70;38.70
17437;DHT22;73152;52.198;5.422;2023-12-07T10:53:20;22.60;38.80
17437;DHT22;73152;52.198;5.422;2023-12-07T10:56:00;22.50;38.90
17437;DHT22;73152;52.198;5.422;2023-12-07T10:58:32;22.40;39.10
17437;DHT22;73152;52.198;5.422;2023-12-07T11:01:05;22.30;39.20
17437;DHT22;73152;52.198;5.422;2023-12-07T11:03:36;22.20;39.40
17437;DHT22;73152;52.198;5.422;2023-12-07T11:06:10;22.20;39.60
17437;DHT22;73152;52.198;5.422;2023-12-07T11:08:41;22.20;39.60
17437;DHT22;73152;52.198;5.422;2023-12-07T11:11:21;22.10;39.70
17437;DHT22;73152;52.198;5.422;2023-12-07T11:13:58;22.10;39.60
17437;DHT22;73152;52.198;5.422;2023-12-07T11:16:29;22.10;39.70
17437;DHT22;73152;52.198;5.422;2023-12-07T11:18:59;22.10;39.60
17437;DHT22;73152;52.198;5.422;2023-12-07T11:21:30;22.20;39.50
17437;DHT22;73152;52.198;5.422;2023-12-07T11:24:00;22.20;39.30
17437;DHT22;73152;52.198;5.422;2023-12-07T11:26:29;22.30;39.20
17437;DHT22;73152;52.198;5.422;2023-12-07T11:28:59;22.30;39.10
17437;DHT22;73152;52.198;5.422;2023-12-07T11:31:28;22.40;38.90
17437;DHT22;73152;52.198;5.422;2023-12-07T11:34:05;22.50;38.80
17437;DHT22;73152;52.198;5.422;2023-12-07T11:36:42;22.50;38.70
17437;DHT22;73152;52.198;5.422;2023-12-07T11:39:16;22.70;38.40
17437;DHT22;73152;52.198;5.422;2023-12-07T11:41:51;22.70;38.20
17437;DHT22;73152;52.198;5.422;2023-12-07T11:44:26;22.80;38.10
17437;DHT22;73152;52.198;5.422;2023-12-07T11:47:02;22.80;38.00
17437;DHT22;73152;52.198;5.422;2023-12-07T11:49:31;22.90;37.90
17437;DHT22;73152;52.198;5.422;2023-12-07T11:52:12;22.90;37.80
17437;DHT22;73152;52.198;5.422;2023-12-07T11:54:44;23.00;37.60
17437;DHT22;73152;52.198;5.422;2023-12-07T11:57:14;23.00;37.60
17437;DHT22;73152;52.198;5.422;2023-12-07T11:59:44;23.00;37.60
17437;DHT22;73152;52.198;5.422;2023-12-07T12:02:13;23.10;37.50
17437;DHT22;73152;52.198;5.422;2023-12-07T12:04:43;23.00;37.50
17437;DHT22;73152;52.198;5.422;2023-12-07T12:07:14;23.00;37.50
17437;DHT22;73152;52.198;5.422;2023-12-07T12:09:44;23.00;37.50
17437;DHT22;73152;52.198;5.422;2023-12-07T12:12:13;23.00;37.60
17437;DHT22;73152;52.198;5.422;2023-12-07T12:14:42;22.90;37.60
17437;DHT22;73152;52.198;5.422;2023-12-07T12:17:14;22.90;37.70
17437;DHT22;73152;52.198;5.422;2023-12-07T12:19:44;22.80;37.80
17437;DHT22;73152;52.198;5.422;2023-12-07T12:22:18;22.80;37.90
17437;DHT22;73152;52.198;5.422;2023-12-07T12:24:47;22.70;37.90
17437;DHT22;73152;52.198;5.422;2023-12-07T12:27:17;22.70;38.00
17437;DHT22;73152;52.198;5.422;2023-12-07T12:29:46;22.70;38.10
17437;DHT22;73152;52.198;5.422;2023-12-07T12:32:16;22.60;38.20
17437;DHT22;73152;52.198;5.422;2023-12-07T12:34:50;22.60;38.30
17437;DHT22;73152;52.198;5.422;2023-12-07T12:37:22;22.60;38.30
17437;DHT22;73152;52.198;5.422;2023-12-07T12:39:52;22.50;38.40
17437;DHT22;73152;52.198;5.422;2023-12-07T12:42:22;22.50;38.40
17437;DHT22;73152;52.198;5.422;2023-12-07T12:44:51;22.50;38.50
17437;DHT22;73152;52.198;5.422;2023-12-07T12:47:20;22.50;38.50
17437;DHT22;73152;52.198;5.422;2023-12-07T12:49:49;22.50;38.50
17437;DHT22;73152;52.198;5.422;2023-12-07T12:52:17;22.40;38.70
17437;DHT22;73152;52.198;5.422;2023-12-07T12:54:49;22.40;38.60
17437;DHT22;73152;52.198;5.422;2023-12-07T12:57:18;22.40;38.60
17437;DHT22;73152;52.198;5.422;2023-12-07T12:59:47;22.40;38.60
17437;DHT22;73152;52.198;5.422;2023-12-07T13:02:16;22.40;38.60
17437;DHT22;73152;52.198;5.422;2023-12-07T13:04:46;22.40;38.70
17437;DHT22;73152;52.198;5.422;2023-12-07T13:07:15;22.40;38.60
17437;DHT22;73152;52.198;5.422;2023-12-07T13:09:44;22.40;38.50
17437;DHT22;73152;52.198;5.422;2023-12-07T13:12:15;22.50;38.50
17437;DHT22;73152;52.198;5.422;2023-12-07T13:14:44;22.40;38.50
17437;DHT22;73152;52.198;5.422;2023-12-07T13:17:12;22.50;38.50
17437;DHT22;73152;52.198;5.422;2023-12-07T13:19:42;22.50;38.40
17437;DHT22;73152;52.198;5.422;2023-12-07T13:22:10;22.50;38.40
17437;DHT22;73152;52.198;5.422;2023-12-07T13:24:39;22.60;38.30
17437;DHT22;73152;52.198;5.422;2023-12-07T13:27:08;22.60;38.20
17437;DHT22;73152;52.198;5.422;2023-12-07T13:29:39;22.60;38.20
17437;DHT22;73152;52.198;5.422;2023-12-07T13:32:08;22.70;38.10
17437;DHT22;73152;52.198;5.422;2023-12-07T13:34:38;22.70;38.00
17437;DHT22;73152;52.198;5.422;2023-12-07T13:37:07;22.70;38.00
17437;DHT22;73152;52.198;5.422;2023-12-07T13:39:36;22.70;38.00
17437;DHT22;73152;52.198;5.422;2023-12-07T13:42:06;22.70;37.90
17437;DHT22;73152;52.198;5.422;2023-12-07T13:44:35;22.70;37.90
17437;DHT22;73152;52.198;5.422;2023-12-07T13:47:07;22.70;37.90
17437;DHT22;73152;52.198;5.422;2023-12-07T13:49:36;22.80;37.80
17437;DHT22;73152;52.198;5.422;2023-12-07T13:52:06;22.80;37.80
17437;DHT22;73152;52.198;5.422;2023-12-07T13:54:35;22.80;37.80
17437;DHT22;73152;52.198;5.422;2023-12-07T13:57:04;22.80;37.80
17437;DHT22;73152;52.198;5.422;2023-12-07T13:59:33;22.80;37.70
17437;DHT22;73152;52.198;5.422;2023-12-07T14:02:02;22.80;37.60
17437;DHT22;73152;52.198;5.422;2023-12-07T14:04:34;22.80;38.80
17437;DHT22;73152;52.198;5.422;2023-12-07T14:07:13;22.80;39.30
17437;DHT22;73152;52.198;5.422;2023-12-07T14:09:44;22.70;39.10
17437;DHT22;73152;52.198;5.422;2023-12-07T14:12:15;22.60;38.80
17437;DHT22;73152;52.198;5.422;2023-12-07T14:14:45;22.60;38.80
17437;DHT22;73152;52.198;5.422;2023-12-07T14:17:16;22.50;38.90
17437;DHT22;73152;52.198;5.422;2023-12-07T14:19:48;22.40;39.00
17437;DHT22;73152;52.198;5.422;2023-12-07T14:22:19;22.40;39.10
17437;DHT22;73152;52.198;5.422;2023-12-07T14:24:48;22.30;39.10
17437;DHT22;73152;52.198;5.422;2023-12-07T14:27:17;22.30;39.20
17437;DHT22;73152;52.198;5.422;2023-12-07T14:29:46;22.30;39.20
17437;DHT22;73152;52.198;5.422;2023-12-07T14:32:15;22.30;39.10
17437;DHT22;73152;52.198;5.422;2023-12-07T14:34:44;22.50;38.90
17437;DHT22;73152;52.198;5.422;2023-12-07T14:37:15;22.60;38.60
17437;DHT22;73152;52.198;5.422;2023-12-07T14:39:44;22.70;38.40
17437;DHT22;73152;52.198;5.422;2023-12-07T14:42:13;22.70;38.30
17437;DHT22;73152;52.198;5.422;2023-12-07T14:44:42;22.70;38.30
17437;DHT22;73152;52.198;5.422;2023-12-07T14:47:11;22.70;38.30
17437;DHT22;73152;52.198;5.422;2023-12-07T14:49:39;22.70;38.30
17437;DHT22;73152;52.198;5.422;2023-12-07T14:52:08;22.70;38.40
17437;DHT22;73152;52.198;5.422;2023-12-07T14:54:40;22.60;38.40
17437;DHT22;73152;52.198;5.422;2023-12-07T14:57:08;22.60;38.50
17437;DHT22;73152;52.198;5.422;2023-12-07T14:59:37;22.60;38.50
17437;DHT22;73152;52.198;5.422;2023-12-07T15:02:06;22.70;38.30
17437;DHT22;73152;52.198;5.422;2023-12-07T15:04:37;22.80;38.20
17437;DHT22;73152;52.198;5.422;2023-12-07T15:07:06;22.80;39.30
17437;DHT22;73152;52.198;5.422;2023-12-07T15:09:35;22.90;39.40
17437;DHT22;73152;52.198;5.422;2023-12-07T15:12:07;23.00;39.10
17437;DHT22;73152;52.198;5.422;2023-12-07T15:14:36;23.10;38.80
17437;DHT22;73152;52.198;5.422;2023-12-07T15:17:05;23.10;38.70
17437;DHT22;73152;52.198;5.422;2023-12-07T15:19:34;23.10;38.30
17437;DHT22;73152;52.198;5.422;2023-12-07T15:22:03;23.20;38.00
17437;DHT22;73152;52.198;5.422;2023-12-07T15:24:33;23.20;38.40
17437;DHT22;73152;52.198;5.422;2023-12-07T15:27:02;23.20;38.60
17437;DHT22;73152;52.198;5.422;2023-12-07T15:29:34;23.10;38.50
17437;DHT22;73152;52.198;5.422;2023-12-07T15:32:04;23.00;38.30
17437;DHT22;73152;52.198;5.422;2023-12-07T15:34:34;23.00;38.20
17437;DHT22;73152;52.198;5.422;2023-12-07T15:37:04;23.10;38.10
17437;DHT22;73152;52.198;5.422;2023-12-07T15:39:35;23.10;38.00
17437;DHT22;73152;52.198;5.422;2023-12-07T15:42:04;23.20;37.80
17437;DHT22;73152;52.198;5.422;2023-12-07T15:44:36;23.20;37.70
17437;DHT22;73152;52.198;5.422;2023-12-07T15:47:04;23.20;37.80